Time;durP1;ratioP1;P1;durP2;ratioP2;P2;SDS_P1;SDS_P2;PMS_P1;PMS_P2;Temp;Humidity;BMP_temperature;BMP_pressure;BME280_temperature;BME280_humidity;BME280_pressure;Samples;Min_cycle;Max_cycle;Signal;HPM_P1;HPM_P2
2023/09/18 00:00:01;;;;;;;14.30;12.90;;;20.30;99.90;;;;;;5051545;28;20481;-72
2023/09/18 00:02:31;;;;;;;10.60;9.70;;;20.30;99.90;;;;;;5055098;28;20552;-74
2023/09/18 00:04:58;;;;;;;13.20;12.00;;;20.30;99.90;;;;;;5048278;28;20438;-73
2023/09/18 00:07:25;;;;;;;11.80;10.70;;;20.30;99.90;;;;;;5054762;28;20524;-72
2023/09/18 00:09:53;;;;;;;13.03;11.83;;;20.20;99.90;;;;;;5053531;28;20475;-71
2023/09/18 00:12:20;;;;;;;11.87;10.77;;;20.20;99.90;;;;;;5055017;28;20451;-70
2023/09/18 00:14:49;;;;;;;11.90;10.80;;;20.20;99.90;;;;;;5049227;28;20440;-69
2023/09/18 00:17:16;;;;;;;13.37;12.00;;;20.20;99.90;;;;;;5048053;28;20465;-74
2023/09/18 00:19:45;;;;;;;13.80;12.33;;;20.20;99.90;;;;;;5050768;28;20435;-73
2023/09/18 00:22:12;;;;;;;12.50;11.33;;;20.20;99.90;;;;;;5050834;28;20447;-72
2023/09/18 00:24:39;;;;;;;13.47;11.10;;;20.20;99.90;;;;;;5052307;28;20527;-73
2023/09/18 00:27:07;;;;;;;11.83;10.80;;;20.10;99.90;;;;;;5046850;28;20539;-74
2023/09/18 00:29:34;;;;;;;13.10;11.87;;;20.10;99.90;;;;;;5050197;28;20486;-73
2023/09/18 00:32:01;;;;;;;13.50;12.30;;;20.10;99.90;;;;;;5052390;28;20888;-70
2023/09/18 00:34:31;;;;;;;14.03;12.60;;;20.10;99.90;;;;;;5049558;28;20447;-73
2023/09/18 00:36:58;;;;;;;12.47;11.30;;;20.10;99.90;;;;;;5054190;28;20468;-71
2023/09/18 00:39:25;;;;;;;14.70;13.20;;;20.10;99.90;;;;;;5052065;28;20465;-71
2023/09/18 00:41:54;;;;;;;16.53;14.93;;;20.00;99.90;;;;;;5052658;28;20884;-71
2023/09/18 00:44:22;;;;;;;21.50;17.50;;;20.00;99.90;;;;;;5048853;28;20794;-72
2023/09/18 00:46:50;;;;;;;14.13;12.57;;;20.00;99.90;;;;;;5045647;28;20502;-72
2023/09/18 00:49:19;;;;;;;12.07;10.80;;;20.00;99.90;;;;;;5043108;28;20824;-72
2023/09/18 00:51:47;;;;;;;11.93;10.90;;;20.00;99.90;;;;;;5048693;28;20435;-74
2023/09/18 00:54:18;;;;;;;12.63;11.43;;;20.00;99.90;;;;;;5049284;28;20541;-73
2023/09/18 00:56:45;;;;;;;14.10;12.70;;;20.00;99.90;;;;;;5052909;28;20473;-71
2023/09/18 00:59:13;;;;;;;14.30;13.13;;;20.00;99.90;;;;;;5052775;28;20430;-75
2023/09/18 01:01:43;;;;;;;12.83;11.53;;;19.90;99.90;;;;;;5043003;28;20451;-71
2023/09/18 01:04:10;;;;;;;12.80;11.70;;;19.90;99.90;;;;;;5046997;28;20528;-73
2023/09/18 01:06:37;;;;;;;14.93;13.00;;;19.90;99.90;;;;;;5041049;28;20466;-72
2023/09/18 01:09:12;;;;;;;12.97;11.77;;;19.90;99.90;;;;;;5042118;28;20482;-71
2023/09/18 01:11:45;;;;;;;11.43;10.33;;;19.90;99.90;;;;;;5046268;28;20442;-74
2023/09/18 01:14:20;;;;;;;11.27;10.23;;;19.90;99.90;;;;;;5027541;28;20442;-70
2023/09/18 01:16:54;;;;;;;11.77;10.80;;;19.90;99.90;;;;;;5032328;28;20500;-74
2023/09/18 01:19:37;;;;;;;10.90;9.80;;;19.90;99.90;;;;;;5046237;28;20837;-75
2023/09/18 01:22:04;;;;;;;12.87;11.77;;;19.90;99.90;;;;;;5053730;28;20450;-75
2023/09/18 01:24:33;;;;;;;12.23;11.13;;;19.90;99.90;;;;;;5047060;28;20523;-75
2023/09/18 01:27:00;;;;;;;11.30;10.23;;;19.90;99.90;;;;;;5049535;28;20933;-74
2023/09/18 01:29:27;;;;;;;10.80;9.80;;;19.90;99.90;;;;;;5052586;28;20652;-72
2023/09/18 01:31:55;;;;;;;12.97;11.80;;;19.90;99.90;;;;;;5052077;28;20608;-72
2023/09/18 01:34:26;;;;;;;12.40;11.17;;;19.90;99.90;;;;;;5053020;28;20909;-71
2023/09/18 01:36:54;;;;;;;11.77;10.63;;;19.80;99.90;;;;;;5037525;28;20907;-73
2023/09/18 01:39:21;;;;;;;10.83;9.90;;;19.80;99.90;;;;;;5044462;28;20444;-72
2023/09/18 01:41:51;;;;;;;11.63;10.53;;;19.80;99.90;;;;;;5049606;28;20430;-74
2023/09/18 01:44:18;;;;;;;13.33;12.13;;;19.80;99.90;;;;;;5046839;28;20457;-74
2023/09/18 01:46:45;;;;;;;11.20;10.20;;;19.80;99.90;;;;;;5049689;28;20520;-72
2023/09/18 01:49:12;;;;;;;11.83;9.07;;;19.70;99.90;;;;;;5044071;28;21048;-72
2023/09/18 01:51:39;;;;;;;10.33;9.30;;;19.80;99.90;;;;;;5047833;28;20843;-73
2023/09/18 01:54:06;;;;;;;13.17;11.87;;;19.80;99.90;;;;;;5049884;28;20530;-72
2023/09/18 01:56:34;;;;;;;11.97;10.87;;;19.70;99.90;;;;;;5047541;28;20870;-70
2023/09/18 01:59:02;;;;;;;11.20;10.10;;;19.70;99.90;;;;;;5049701;28;20529;-70
2023/09/18 02:01:29;;;;;;;10.40;9.40;;;19.70;99.90;;;;;;5048486;28;20824;-73
2023/09/18 02:03:56;;;;;;;10.30;9.30;;;19.60;99.90;;;;;;5050850;28;20447;-72
2023/09/18 02:06:23;;;;;;;9.87;9.07;;;19.60;99.90;;;;;;5044537;28;20459;-71
2023/09/18 02:08:50;;;;;;;11.03;9.97;;;19.60;99.90;;;;;;5043878;28;20489;-71
2023/09/18 02:11:18;;;;;;;11.10;10.00;;;19.60;99.90;;;;;;5051974;28;20446;-72
2023/09/18 02:13:45;;;;;;;11.13;10.10;;;19.60;99.90;;;;;;5043016;28;20461;-74
2023/09/18 02:16:13;;;;;;;12.13;10.93;;;19.60;99.90;;;;;;5053024;28;20496;-68
2023/09/18 02:18:40;;;;;;;10.50;9.60;;;19.50;99.90;;;;;;5050507;28;20470;-68
2023/09/18 02:21:08;;;;;;;10.70;9.70;;;19.60;99.90;;;;;;5045651;28;20521;-71
2023/09/18 02:23:34;;;;;;;10.97;10.00;;;19.60;99.90;;;;;;5051346;28;20506;-71
2023/09/18 02:26:01;;;;;;;11.33;10.27;;;19.60;99.90;;;;;;5054631;28;20470;-70
2023/09/18 02:28:28;;;;;;;11.23;10.13;;;19.60;99.90;;;;;;5058129;28;20438;-75
2023/09/18 02:30:55;;;;;;;12.03;10.50;;;19.60;99.90;;;;;;5052508;28;20530;-75
2023/09/18 02:33:23;;;;;;;9.63;8.63;;;19.60;99.90;;;;;;5047009;28;20462;-73
2023/09/18 02:35:50;;;;;;;14.10;11.23;;;19.60;99.90;;;;;;5048792;28;20466;-70
2023/09/18 02:38:17;;;;;;;10.70;9.60;;;19.50;99.90;;;;;;5045993;28;20438;-74
2023/09/18 02:40:43;;;;;;;11.70;10.30;;;19.50;99.90;;;;;;5048182;28;20529;-73
2023/09/18 02:43:10;;;;;;;10.47;9.47;;;19.50;99.90;;;;;;5047842;28;20521;-72
2023/09/18 02:45:37;;;;;;;10.00;9.10;;;19.50;99.90;;;;;;5039988;28;20447;-73
2023/09/18 02:48:04;;;;;;;10.13;8.60;;;19.50;99.90;;;;;;5048397;28;20516;-72
2023/09/18 02:50:33;;;;;;;9.80;9.00;;;19.50;99.90;;;;;;5044339;28;20486;-71
2023/09/18 02:53:00;;;;;;;9.73;8.83;;;19.50;99.90;;;;;;5044743;28;20467;-69
2023/09/18 02:55:27;;;;;;;10.77;9.67;;;19.50;99.90;;;;;;5050707;28;20516;-72
2023/09/18 02:57:53;;;;;;;8.67;7.97;;;19.60;99.90;;;;;;5041520;28;20457;-74
2023/09/18 03:00:21;;;;;;;11.60;10.40;;;19.50;99.90;;;;;;5054534;28;20445;-72
2023/09/18 03:02:47;;;;;;;13.60;10.83;;;19.60;99.90;;;;;;5054779;28;20452;-70
2023/09/18 03:05:14;;;;;;;11.00;9.90;;;19.50;99.90;;;;;;5049247;28;20937;-70
2023/09/18 03:07:44;;;;;;;10.83;9.73;;;19.50;99.90;;;;;;5051972;28;22175;-74
2023/09/18 03:10:13;;;;;;;11.50;10.27;;;19.60;99.90;;;;;;5048250;28;20531;-72
2023/09/18 03:12:40;;;;;;;10.73;9.73;;;19.60;99.90;;;;;;5045935;28;20456;-73
2023/09/18 03:15:08;;;;;;;15.20;11.73;;;19.50;99.90;;;;;;5044428;28;20896;-75
2023/09/18 03:17:36;;;;;;;10.70;9.70;;;19.50;99.90;;;;;;5045742;28;20497;-73
2023/09/18 03:20:03;;;;;;;14.40;11.87;;;19.50;99.90;;;;;;5049620;28;20479;-71
2023/09/18 03:22:30;;;;;;;11.33;10.10;;;19.50;99.90;;;;;;5045981;28;20494;-69
2023/09/18 03:24:58;;;;;;;12.80;9.73;;;19.40;99.90;;;;;;5049327;28;20442;-73
2023/09/18 03:27:28;;;;;;;12.70;9.00;;;19.40;99.90;;;;;;5047600;28;20465;-70
2023/09/18 03:29:55;;;;;;;9.90;8.93;;;19.40;99.90;;;;;;5045751;28;20489;-71
2023/09/18 03:32:22;;;;;;;9.63;8.63;;;19.40;99.90;;;;;;5049568;28;20475;-71
2023/09/18 03:34:52;;;;;;;10.43;8.93;;;19.40;99.90;;;;;;5049895;28;20450;-72
2023/09/18 03:37:19;;;;;;;8.43;7.60;;;19.40;99.90;;;;;;5047879;28;20516;-69
2023/09/18 03:39:45;;;;;;;9.77;8.37;;;19.50;99.90;;;;;;5051376;28;20460;-73
2023/09/18 03:42:14;;;;;;;9.20;8.30;;;19.50;99.90;;;;;;5053388;28;20449;-70
2023/09/18 03:44:40;;;;;;;10.70;9.00;;;19.50;99.90;;;;;;5053222;28;20434;-70
2023/09/18 03:47:08;;;;;;;8.90;8.10;;;19.50;99.90;;;;;;5049550;28;20457;-70
2023/09/18 03:49:35;;;;;;;9.33;8.53;;;19.50;99.90;;;;;;5052807;28;20491;-74
2023/09/18 03:52:02;;;;;;;8.90;8.10;;;19.50;99.90;;;;;;5054871;28;20529;-71
2023/09/18 03:54:29;;;;;;;8.77;8.00;;;19.50;99.90;;;;;;5048669;28;20443;-72
2023/09/18 03:56:56;;;;;;;9.40;8.50;;;19.60;99.90;;;;;;5054905;28;20536;-73
2023/09/18 03:59:24;;;;;;;9.87;9.00;;;19.60;99.90;;;;;;5047559;28;20434;-73
2023/09/18 04:01:51;;;;;;;9.17;8.13;;;19.70;99.90;;;;;;5050335;28;20458;-72
2023/09/18 04:04:18;;;;;;;8.83;7.27;;;19.70;99.90;;;;;;5053257;28;20443;-71
2023/09/18 04:06:46;;;;;;;9.77;8.77;;;19.80;99.90;;;;;;5043898;28;20464;-72
2023/09/18 04:09:15;;;;;;;8.73;7.93;;;19.70;99.90;;;;;;5051997;28;20446;-74
2023/09/18 04:11:41;;;;;;;10.40;7.80;;;19.80;99.90;;;;;;5049073;28;20448;-74
2023/09/18 04:14:08;;;;;;;8.70;7.47;;;19.70;99.90;;;;;;5054499;28;20470;-73
2023/09/18 04:16:37;;;;;;;9.20;8.30;;;19.80;99.90;;;;;;5047204;28;20573;-74
2023/09/18 04:19:04;;;;;;;8.10;7.50;;;19.70;99.90;;;;;;5045874;28;20438;-73
2023/09/18 04:21:31;;;;;;;9.20;8.40;;;19.70;99.90;;;;;;5052046;28;20509;-74
2023/09/18 04:23:58;;;;;;;8.43;7.67;;;19.70;99.90;;;;;;5048137;28;20439;-72
2023/09/18 04:26:29;;;;;;;9.67;8.70;;;19.60;99.90;;;;;;5053913;28;20474;-72
2023/09/18 04:28:56;;;;;;;10.43;7.77;;;19.60;99.90;;;;;;5046547;28;20453;-73
2023/09/18 04:31:23;;;;;;;8.40;7.60;;;19.70;99.90;;;;;;5047666;28;20485;-74
2023/09/18 04:33:51;;;;;;;8.77;7.83;;;19.70;99.90;;;;;;5048091;28;20525;-73
2023/09/18 04:36:18;;;;;;;9.13;8.33;;;19.70;99.90;;;;;;5039303;28;20477;-72
2023/09/18 04:38:45;;;;;;;9.43;8.20;;;19.70;99.90;;;;;;5048669;28;20938;-74
2023/09/18 04:41:12;;;;;;;10.43;8.57;;;19.70;99.90;;;;;;5046986;28;20872;-72
2023/09/18 04:43:39;;;;;;;17.63;9.87;;;19.80;99.90;;;;;;5053645;28;20474;-75
2023/09/18 04:46:06;;;;;;;8.97;7.90;;;19.90;99.90;;;;;;5048994;28;20490;-71
2023/09/18 04:48:34;;;;;;;9.07;8.30;;;19.90;99.90;;;;;;5053910;28;20443;-71
2023/09/18 04:51:04;;;;;;;10.20;7.77;;;19.90;99.90;;;;;;5047227;28;20510;-72
2023/09/18 04:53:31;;;;;;;8.80;7.87;;;20.00;99.90;;;;;;5054323;28;20927;-72
2023/09/18 04:55:58;;;;;;;9.97;8.00;;;20.00;99.90;;;;;;5052499;28;20786;-75
2023/09/18 04:58:25;;;;;;;10.13;8.10;;;20.10;99.90;;;;;;5053066;28;20446;-74
2023/09/18 05:00:55;;;;;;;8.37;7.57;;;20.10;99.90;;;;;;5044347;28;20443;-75
2023/09/18 05:03:22;;;;;;;7.70;6.97;;;20.20;99.90;;;;;;5054215;28;20452;-74
2023/09/18 05:05:50;;;;;;;7.37;6.63;;;20.20;99.90;;;;;;5046627;28;20460;-72
2023/09/18 05:08:19;;;;;;;7.97;7.23;;;20.30;99.90;;;;;;5050499;28;20531;-72
2023/09/18 05:10:47;;;;;;;7.43;6.73;;;20.30;99.90;;;;;;5049957;28;20483;-73
2023/09/18 05:13:14;;;;;;;8.93;7.77;;;20.30;99.90;;;;;;5044900;28;20449;-74
2023/09/18 05:15:41;;;;;;;7.27;6.57;;;20.40;99.90;;;;;;5039344;28;20471;-74
2023/09/18 05:18:08;;;;;;;10.43;7.20;;;20.40;99.90;;;;;;5049653;28;20526;-71
2023/09/18 05:20:35;;;;;;;8.93;7.83;;;20.40;99.90;;;;;;5045036;28;20527;-73
2023/09/18 05:23:02;;;;;;;11.07;8.87;;;20.40;99.90;;;;;;5049272;28;20892;-70
2023/09/18 05:25:32;;;;;;;15.23;6.83;;;20.40;99.90;;;;;;5053646;28;20470;-74
2023/09/18 05:28:04;;;;;;;10.97;9.83;;;20.40;99.90;;;;;;5050348;28;20542;-72
2023/09/18 05:30:34;;;;;;;9.17;8.07;;;20.50;99.90;;;;;;5046555;28;20483;-74
2023/09/18 05:33:04;;;;;;;7.10;6.40;;;20.50;99.90;;;;;;5051567;28;20449;-73
2023/09/18 05:35:31;;;;;;;8.20;6.97;;;20.60;99.90;;;;;;5048442;28;20441;-72
2023/09/18 05:37:59;;;;;;;9.97;8.80;;;20.60;99.90;;;;;;5051014;28;20442;-73
2023/09/18 05:40:26;;;;;;;7.67;6.97;;;20.60;99.90;;;;;;5044472;28;20454;-74
2023/09/18 05:42:56;;;;;;;8.13;6.83;;;20.60;99.90;;;;;;5050503;28;20469;-74
2023/09/18 05:45:23;;;;;;;12.60;8.27;;;20.60;99.90;;;;;;5047630;28;20441;-73
2023/09/18 05:47:53;;;;;;;8.20;7.10;;;20.60;99.90;;;;;;5041471;28;20525;-73
2023/09/18 05:50:21;;;;;;;10.17;9.20;;;20.60;99.90;;;;;;5049574;28;20581;-72
2023/09/18 05:52:49;;;;;;;10.37;7.40;;;20.60;99.90;;;;;;5043016;28;20442;-73
2023/09/18 05:55:16;;;;;;;8.33;7.53;;;20.60;99.90;;;;;;5051424;28;20442;-72
2023/09/18 05:57:43;;;;;;;13.43;8.70;;;20.60;99.90;;;;;;5045282;28;20531;-72
2023/09/18 06:00:13;;;;;;;11.60;10.50;;;20.60;99.90;;;;;;5051419;28;20601;-73
2023/09/18 06:02:41;;;;;;;8.43;7.63;;;20.50;99.90;;;;;;5051036;28;20927;-74
2023/09/18 06:05:11;;;;;;;7.90;7.07;;;20.60;99.90;;;;;;5047267;28;20534;-72
2023/09/18 06:07:38;;;;;;;8.00;7.30;;;20.60;99.90;;;;;;5051451;28;20465;-75
2023/09/18 06:10:07;;;;;;;9.20;8.30;;;20.50;99.90;;;;;;5045652;28;20495;-73
2023/09/18 06:12:34;;;;;;;9.73;8.20;;;20.50;99.90;;;;;;5052835;28;20445;-73
2023/09/18 06:15:01;;;;;;;12.30;8.80;;;20.50;99.90;;;;;;5048676;28;20540;-73
2023/09/18 06:17:29;;;;;;;9.30;8.47;;;20.50;99.90;;;;;;5047554;28;20546;-71
2023/09/18 06:19:56;;;;;;;11.03;8.40;;;20.50;99.90;;;;;;5048805;28;20463;-73
2023/09/18 06:22:23;;;;;;;9.57;6.93;;;20.40;99.90;;;;;;5052757;28;20806;-71
2023/09/18 06:24:50;;;;;;;10.17;8.03;;;20.40;99.90;;;;;;5046670;28;20527;-71
2023/09/18 06:27:18;;;;;;;11.50;8.60;;;20.40;99.90;;;;;;5044144;28;20576;-72
2023/09/18 06:29:45;;;;;;;12.63;6.93;;;20.40;99.90;;;;;;5039619;28;20445;-72
2023/09/18 06:32:13;;;;;;;9.30;8.03;;;20.40;99.90;;;;;;5045423;28;20517;-73
2023/09/18 06:34:44;;;;;;;8.23;7.40;;;20.40;99.90;;;;;;5049630;28;20451;-73
2023/09/18 06:37:12;;;;;;;8.60;7.87;;;20.50;99.90;;;;;;5040751;28;20460;-73
2023/09/18 06:39:39;;;;;;;10.40;9.40;;;20.50;99.90;;;;;;5051605;28;21480;-73
2023/09/18 06:42:06;;;;;;;8.27;7.40;;;20.60;99.90;;;;;;5044780;28;20448;-74
2023/09/18 06:44:33;;;;;;;7.90;7.27;;;20.70;99.90;;;;;;5051447;28;20472;-74
2023/09/18 06:47:00;;;;;;;7.27;6.37;;;20.80;99.90;;;;;;5045862;28;20472;-72
2023/09/18 06:49:27;;;;;;;11.30;8.23;;;20.80;99.90;;;;;;5049426;28;20532;-71
2023/09/18 06:51:55;;;;;;;7.80;7.13;;;20.80;99.90;;;;;;5051757;28;20481;-70
2023/09/18 06:54:22;;;;;;;8.83;7.23;;;20.90;99.90;;;;;;5043593;28;20447;-74
2023/09/18 06:56:49;;;;;;;12.43;9.17;;;20.90;99.90;;;;;;5048236;28;21089;-71
2023/09/18 06:59:16;;;;;;;9.40;8.50;;;20.80;99.90;;;;;;5040680;28;20936;-70
2023/09/18 07:01:43;;;;;;;8.70;7.90;;;20.80;99.90;;;;;;5046573;28;20553;-72
2023/09/18 07:04:10;;;;;;;8.30;7.40;;;20.80;99.90;;;;;;5047104;28;20459;-72
2023/09/18 07:06:38;;;;;;;7.73;6.93;;;20.70;99.90;;;;;;5050460;28;20466;-71
2023/09/18 07:09:06;;;;;;;7.80;7.10;;;20.70;99.90;;;;;;5046314;28;20534;-72
2023/09/18 07:11:34;;;;;;;8.40;7.60;;;20.60;99.90;;;;;;5041798;28;20485;-69
2023/09/18 07:14:06;;;;;;;12.40;8.90;;;20.60;99.90;;;;;;5048930;28;20480;-71
2023/09/18 07:16:33;;;;;;;8.93;8.13;;;20.50;99.90;;;;;;5049174;28;20884;-72
2023/09/18 07:19:01;;;;;;;8.63;7.67;;;20.50;99.90;;;;;;5050499;28;20452;-70
2023/09/18 07:21:28;;;;;;;15.60;9.47;;;20.50;99.90;;;;;;5049457;28;20859;-72
2023/09/18 07:23:55;;;;;;;16.23;9.37;;;20.40;99.90;;;;;;5046708;28;20453;-73
2023/09/18 07:26:24;;;;;;;8.77;7.83;;;20.40;99.90;;;;;;5049201;28;20559;-73
2023/09/18 07:28:50;;;;;;;9.90;9.00;;;20.50;99.90;;;;;;5040185;28;21027;-71
2023/09/18 07:31:17;;;;;;;9.20;8.30;;;20.40;99.90;;;;;;5039333;28;20490;-71
2023/09/18 07:33:44;;;;;;;11.53;10.20;;;20.50;99.90;;;;;;5050944;28;20525;-73
2023/09/18 07:36:11;;;;;;;10.30;9.20;;;20.50;99.90;;;;;;5051509;28;20470;-71
2023/09/18 07:38:38;;;;;;;9.27;8.20;;;20.50;99.90;;;;;;5048566;28;20523;-70
2023/09/18 07:41:06;;;;;;;10.17;9.17;;;20.60;99.90;;;;;;5044135;28;20995;-72
2023/09/18 07:43:34;;;;;;;9.60;8.60;;;20.60;99.90;;;;;;5043558;28;20897;-71
2023/09/18 07:46:02;;;;;;;12.43;9.13;;;20.50;99.90;;;;;;5048770;28;20478;-71
2023/09/18 07:48:28;;;;;;;12.97;9.03;;;20.60;99.90;;;;;;5052682;28;20472;-71
2023/09/18 07:50:55;;;;;;;8.57;7.30;;;20.70;99.90;;;;;;5046379;28;20489;-72
2023/09/18 07:53:22;;;;;;;10.43;9.43;;;20.70;99.90;;;;;;5041875;28;20451;-73
2023/09/18 07:55:56;;;;;;;10.87;9.30;;;20.70;99.90;;;;;;5053544;28;20563;-73
2023/09/18 07:58:24;;;;;;;8.87;8.17;;;20.70;99.90;;;;;;5043888;28;20449;-72
2023/09/18 08:00:53;;;;;;;8.97;7.40;;;20.70;99.90;;;;;;5054609;28;20523;-73
2023/09/18 08:03:22;;;;;;;17.70;8.80;;;20.80;99.90;;;;;;5050931;28;20520;-73
2023/09/18 08:05:51;;;;;;;9.73;8.83;;;20.70;99.90;;;;;;5049456;28;20819;-70
2023/09/18 08:08:20;;;;;;;8.17;7.47;;;20.80;99.90;;;;;;5052687;28;20446;-72
2023/09/18 08:10:48;;;;;;;14.07;9.30;;;20.90;99.90;;;;;;5049377;28;20480;-73
2023/09/18 08:13:14;;;;;;;8.00;7.20;;;21.00;99.90;;;;;;5046222;28;20538;-73
2023/09/18 08:15:41;;;;;;;10.77;8.90;;;21.10;99.90;;;;;;5051288;28;20466;-72
2023/09/18 08:18:10;;;;;;;13.73;9.40;;;21.30;99.90;;;;;;5053173;28;20446;-73
2023/09/18 08:20:40;;;;;;;8.80;7.90;;;21.50;99.90;;;;;;5054102;28;20492;-74
2023/09/18 08:23:07;;;;;;;11.10;8.93;;;21.50;99.90;;;;;;5049922;28;20533;-72
2023/09/18 08:25:35;;;;;;;9.70;8.80;;;21.60;99.90;;;;;;5054520;28;20508;-75
2023/09/18 08:28:03;;;;;;;9.70;8.70;;;21.70;99.90;;;;;;5050256;28;20815;-72
2023/09/18 08:30:30;;;;;;;8.97;8.17;;;21.80;99.90;;;;;;5048895;28;20536;-73
2023/09/18 08:32:57;;;;;;;9.33;8.53;;;21.80;99.90;;;;;;5049089;28;20454;-75
2023/09/18 08:35:28;;;;;;;13.30;9.10;;;22.00;99.90;;;;;;5050509;28;20481;-72
2023/09/18 08:37:56;;;;;;;8.27;7.57;;;22.20;99.90;;;;;;5052372;28;20809;-74
2023/09/18 08:40:25;;;;;;;9.47;7.07;;;22.50;99.90;;;;;;5049029;28;22322;-72
2023/09/18 08:42:54;;;;;;;8.73;7.20;;;22.90;99.90;;;;;;5049487;28;20442;-71
2023/09/18 08:45:26;;;;;;;8.10;6.60;;;23.30;99.90;;;;;;5049469;28;20446;-72
2023/09/18 08:47:55;;;;;;;8.50;6.50;;;23.70;99.90;;;;;;5049891;28;20881;-75
2023/09/18 08:50:22;;;;;;;7.80;6.17;;;24.30;99.90;;;;;;5054425;28;20481;-73
2023/09/18 08:52:51;;;;;;;7.77;7.07;;;24.80;99.90;;;;;;5053021;28;20437;-71
2023/09/18 08:55:19;;;;;;;7.40;6.67;;;24.80;99.90;;;;;;5044722;28;20480;-74
2023/09/18 08:57:47;;;;;;;8.20;6.37;;;24.80;99.90;;;;;;5050857;28;20927;-74
2023/09/18 09:00:17;;;;;;;7.30;6.43;;;25.00;99.90;;;;;;5041611;28;20446;-74
2023/09/18 09:02:44;;;;;;;8.27;6.47;;;25.30;99.90;;;;;;5052073;28;20779;-73
2023/09/18 09:05:12;;;;;;;8.33;6.30;;;25.50;99.90;;;;;;5050360;28;21021;-73
2023/09/18 09:07:39;;;;;;;6.33;5.57;;;25.40;99.90;;;;;;5053668;28;20523;-73
2023/09/18 09:10:08;;;;;;;8.23;5.17;;;25.40;99.90;;;;;;5047902;28;20497;-73
2023/09/18 09:12:58;;;;;;;9.23;5.50;;;25.50;99.90;;;;;;5047328;28;20962;-71
2023/09/18 09:15:27;;;;;;;8.50;5.90;;;25.60;99.90;;;;;;5037459;28;20450;-76
2023/09/18 09:18:03;;;;;;;12.93;5.83;;;25.30;99.90;;;;;;5048154;28;20538;-73
2023/09/18 09:20:30;;;;;;;10.70;5.40;;;25.10;99.90;;;;;;5050854;28;20528;-73
2023/09/18 09:23:03;;;;;;;14.60;12.10;;;24.80;99.90;;;;;;5052380;28;20446;-72
2023/09/18 09:25:33;;;;;;;9.53;5.60;;;24.60;99.90;;;;;;5052710;28;20444;-75
2023/09/18 09:28:01;;;;;;;6.10;5.27;;;24.40;99.90;;;;;;5053486;28;20451;-73
2023/09/18 09:30:29;;;;;;;7.40;5.00;;;24.20;99.90;;;;;;5050419;28;20469;-76
2023/09/18 09:32:58;;;;;;;11.33;5.30;;;24.10;99.90;;;;;;5055436;28;20577;-74
2023/09/18 09:35:28;;;;;;;7.07;4.80;;;24.00;99.90;;;;;;5053445;28;20469;-75
2023/09/18 09:37:58;;;;;;;9.50;5.17;;;23.90;99.90;;;;;;5053954;28;20442;-74
2023/09/18 09:40:26;;;;;;;9.37;5.40;;;23.90;99.90;;;;;;5047641;28;20447;-72
2023/09/18 09:43:01;;;;;;;10.00;5.13;;;24.00;99.90;;;;;;5048278;28;20442;-72
2023/09/18 09:45:35;;;;;;;5.77;5.17;;;24.00;99.90;;;;;;5046458;28;20449;-74
2023/09/18 09:48:04;;;;;;;8.43;4.77;;;24.10;99.90;;;;;;5035901;28;20446;-73
2023/09/18 09:50:32;;;;;;;13.10;5.87;;;24.20;99.90;;;;;;5049798;28;20450;-76
2023/09/18 09:52:59;;;;;;;11.10;4.87;;;24.00;99.90;;;;;;5046046;28;20485;-74
2023/09/18 09:55:28;;;;;;;14.67;6.93;;;24.00;99.90;;;;;;5053235;28;20537;-75
2023/09/18 09:57:59;;;;;;;9.97;5.27;;;24.00;99.90;;;;;;5050028;28;20450;-74
2023/09/18 10:00:31;;;;;;;12.90;3.87;;;23.90;99.90;;;;;;5048469;28;20458;-72
2023/09/18 10:03:02;;;;;;;7.07;4.33;;;23.90;99.90;;;;;;5045559;28;20447;-72
2023/09/18 10:05:32;;;;;;;9.30;4.77;;;24.00;99.90;;;;;;5035546;28;20483;-72
2023/09/18 10:08:03;;;;;;;10.20;4.53;;;24.00;99.90;;;;;;5046392;28;20455;-74
2023/09/18 10:10:33;;;;;;;6.80;4.10;;;24.10;99.90;;;;;;5047492;28;20479;-72
2023/09/18 10:13:09;;;;;;;8.50;4.50;;;24.20;99.90;;;;;;5049226;28;20482;-73
2023/09/18 10:15:38;;;;;;;13.83;5.00;;;24.20;99.90;;;;;;5048761;28;20482;-74
2023/09/18 10:18:13;;;;;;;10.00;4.37;;;24.10;99.90;;;;;;5044824;28;20451;-75
2023/09/18 10:20:43;;;;;;;13.97;4.63;;;23.90;99.90;;;;;;5051853;28;20495;-74
2023/09/18 10:23:23;;;;;;;8.80;4.73;;;23.80;99.90;;;;;;5044275;28;20440;-74
2023/09/18 10:25:54;;;;;;;11.00;4.23;;;23.80;99.90;;;;;;5052566;28;20827;-71
2023/09/18 10:28:26;;;;;;;11.27;4.67;;;23.90;99.90;;;;;;5049365;28;20457;-72
2023/09/18 10:30:56;;;;;;;11.57;4.93;;;23.90;99.90;;;;;;5051446;28;20438;-73
2023/09/18 10:33:23;;;;;;;8.60;4.67;;;23.90;99.90;;;;;;5049665;28;20868;-73
2023/09/18 10:35:52;;;;;;;5.50;4.00;;;23.80;99.90;;;;;;5048495;28;20913;-75
2023/09/18 10:38:20;;;;;;;9.30;4.80;;;23.80;99.90;;;;;;5049687;28;20482;-74
2023/09/18 10:40:48;;;;;;;7.23;3.40;;;23.80;99.90;;;;;;5044131;28;20478;-75
2023/09/18 10:43:18;;;;;;;10.90;4.90;;;24.00;99.90;;;;;;5050461;28;20462;-73
2023/09/18 10:45:48;;;;;;;11.00;4.47;;;24.00;99.90;;;;;;5041950;28;20987;-73
2023/09/18 10:48:18;;;;;;;9.40;4.00;;;23.90;99.90;;;;;;5051060;28;20442;-73
2023/09/18 10:50:46;;;;;;;11.03;4.90;;;23.80;99.90;;;;;;5049237;28;20452;-71
2023/09/18 10:53:14;;;;;;;8.40;5.00;;;23.70;99.90;;;;;;5052318;28;20486;-72
2023/09/18 10:55:43;;;;;;;10.77;4.30;;;23.70;99.90;;;;;;5050794;28;20855;-74
2023/09/18 10:58:10;;;;;;;8.33;3.57;;;23.60;99.90;;;;;;5047958;28;20478;-73
2023/09/18 11:00:37;;;;;;;6.87;4.37;;;23.70;99.90;;;;;;5046246;28;20486;-72
2023/09/18 11:03:13;;;;;;;6.53;3.80;;;23.50;99.90;;;;;;5047697;28;20438;-72
2023/09/18 11:05:40;;;;;;;6.40;4.60;;;23.70;99.90;;;;;;5050386;28;20493;-74
2023/09/18 11:08:27;;;;;;;6.77;4.17;;;23.80;99.90;;;;;;5042073;28;20525;-73
2023/09/18 11:11:04;;;;;;;9.50;4.60;;;23.90;99.90;;;;;;5046855;28;20450;-73
2023/09/18 11:13:32;;;;;;;8.10;3.53;;;24.10;99.90;;;;;;5040166;28;20604;-76
2023/09/18 11:16:13;;;;;;;10.67;3.30;;;24.40;99.90;;;;;;5044920;28;20508;-75
2023/09/18 11:18:42;;;;;;;6.80;3.40;;;24.50;99.90;;;;;;5045249;28;20790;-73
2023/09/18 11:21:10;;;;;;;8.03;3.90;;;24.60;99.90;;;;;;5055305;28;20490;-74
2023/09/18 11:23:38;;;;;;;8.90;3.70;;;24.60;99.90;;;;;;5051018;28;20881;-75
2023/09/18 11:26:08;;;;;;;10.37;3.83;;;24.70;99.90;;;;;;5044450;28;20476;-76
2023/09/18 11:28:37;;;;;;;5.43;3.80;;;24.90;99.90;;;;;;5051464;28;20481;-72
2023/09/18 11:31:05;;;;;;;6.67;3.70;;;24.90;99.90;;;;;;5055124;28;20806;-73
2023/09/18 11:33:33;;;;;;;5.77;3.00;;;24.80;99.90;;;;;;5056988;28;20975;-74
2023/09/18 11:36:05;;;;;;;5.40;3.30;;;24.80;99.90;;;;;;5045780;28;20450;-74
2023/09/18 11:38:33;;;;;;;4.67;3.53;;;24.80;99.90;;;;;;5051135;28;20473;-73
2023/09/18 11:41:01;;;;;;;8.63;3.80;;;24.80;99.90;;;;;;5049607;28;20860;-74
2023/09/18 11:43:30;;;;;;;17.80;4.20;;;24.80;99.90;;;;;;5050075;28;20937;-74
2023/09/18 11:45:59;;;;;;;7.93;3.83;;;24.80;99.90;;;;;;5051302;28;20469;-72
2023/09/18 11:48:29;;;;;;;14.70;5.00;;;24.90;99.90;;;;;;5056121;28;20533;-74
2023/09/18 11:50:58;;;;;;;13.83;4.73;;;24.90;99.90;;;;;;5054993;28;20529;-74
2023/09/18 11:53:28;;;;;;;8.47;4.13;;;24.80;99.90;;;;;;5046707;28;20482;-73
2023/09/18 11:55:56;;;;;;;5.27;3.70;;;24.80;99.90;;;;;;5051803;28;20470;-73
2023/09/18 11:58:23;;;;;;;5.73;4.00;;;25.00;99.90;;;;;;5049718;28;20448;-75
2023/09/18 12:00:50;;;;;;;13.83;4.70;;;24.80;99.90;;;;;;5047012;28;20457;-73
2023/09/18 12:03:24;;;;;;;8.97;4.70;;;24.80;99.90;;;;;;5055871;28;20520;-74
2023/09/18 12:05:54;;;;;;;5.33;4.03;;;24.60;99.90;;;;;;5047148;28;20477;-75
2023/09/18 12:08:22;;;;;;;9.37;5.43;;;24.30;99.90;;;;;;5053677;28;20478;-76
2023/09/18 12:10:53;;;;;;;8.43;6.03;;;24.30;99.90;;;;;;5049544;28;20446;-72
2023/09/18 12:13:22;;;;;;;5.43;4.63;;;24.00;99.90;;;;;;5046289;28;20478;-72
2023/09/18 12:15:49;;;;;;;7.67;4.40;;;24.20;99.90;;;;;;5051260;28;20553;-73
2023/09/18 12:18:17;;;;;;;6.43;3.90;;;24.30;99.90;;;;;;5048100;28;20448;-71
2023/09/18 12:20:48;;;;;;;9.60;4.70;;;24.70;99.90;;;;;;5049835;28;20458;-72
2023/09/18 12:23:16;;;;;;;7.13;2.93;;;24.90;99.90;;;;;;5050947;28;20779;-73
2023/09/18 12:25:47;;;;;;;3.40;2.80;;;24.90;99.90;;;;;;5043624;28;20467;-74
2023/09/18 12:28:16;;;;;;;7.80;3.80;;;25.30;99.90;;;;;;5050169;28;20528;-71
2023/09/18 12:30:43;;;;;;;7.60;3.80;;;25.30;99.90;;;;;;5046544;28;20451;-73
2023/09/18 12:33:15;;;;;;;11.70;3.60;;;25.40;99.90;;;;;;5056923;28;20470;-75
2023/09/18 12:35:42;;;;;;;4.97;3.40;;;25.20;99.90;;;;;;5050808;28;20511;-73
2023/09/18 12:38:22;;;;;;;8.30;3.27;;;25.10;99.90;;;;;;5055451;28;20442;-73
2023/09/18 12:40:50;;;;;;;5.77;3.30;;;25.00;99.90;;;;;;5050826;28;20451;-73
2023/09/18 12:43:24;;;;;;;6.47;3.67;;;25.10;99.90;;;;;;5052431;28;20438;-74
2023/09/18 12:45:52;;;;;;;4.57;3.43;;;25.00;99.90;;;;;;5049693;28;20475;-75